Aneta, North Dakota
Current Conditions -  °F | °C
As of 7:58 PM on Sunday 25 Jan 2015 (Local Time) from KRDR Reporting Station
Overcast Overcast  
Wind Chill: 16°   Ceiling: 8500
Heat Index: 26°   Visibility: 10mi
Dew Point: 20°   Wind: 12mph
Humidity: 79%   Direction: 210°SSW
Pressure: 29.84"   Gusts: NA
Location:  47.68°N, 97.99°W
Report Text: KRDR 260158Z AUTO 21010KT 10SM FEW012 OVC085 M03/M06 A2984 RMK AO2 SLP127 T10331064
Loading
Personal Weather Stations






























Interactive Weather Map New forecast layout! Learn more

10-Day Weather Forecast

Advertisements
Track Severe Weather on mobile